sensor_id;sensor_type;location;lat;lon;timestamp;temperature;humidity
38380;DHT22;38377;47.418;18.882;2023-04-25T00:01:21;11.20;99.90
38380;DHT22;38377;47.418;18.882;2023-04-25T00:03:49;11.10;99.90
38380;DHT22;38377;47.418;18.882;2023-04-25T00:06:16;11.20;99.90
38380;DHT22;38377;47.418;18.882;2023-04-25T00:08:43;11.10;99.90
38380;DHT22;38377;47.418;18.882;2023-04-25T00:11:08;11.10;99.90
38380;DHT22;38377;47.418;18.882;2023-04-25T00:13:34;11.10;99.90
38380;DHT22;38377;47.418;18.882;2023-04-25T00:16:00;11.10;99.90
38380;DHT22;38377;47.418;18.882;2023-04-25T00:18:26;11.10;99.90
38380;DHT22;38377;47.418;18.882;2023-04-25T00:20:59;11.10;99.90
38380;DHT22;38377;47.418;18.882;2023-04-25T00:23:24;11.10;99.90
38380;DHT22;38377;47.418;18.882;2023-04-25T00:25:50;11.10;99.90
38380;DHT22;38377;47.418;18.882;2023-04-25T00:28:16;11.10;99.90
38380;DHT22;38377;47.418;18.882;2023-04-25T00:30:43;11.10;99.90
38380;DHT22;38377;47.418;18.882;2023-04-25T00:33:09;11.10;99.90
38380;DHT22;38377;47.418;18.882;2023-04-25T00:35:35;11.10;99.90
38380;DHT22;38377;47.418;18.882;2023-04-25T00:38:01;11.00;99.90
38380;DHT22;38377;47.418;18.882;2023-04-25T00:40:28;10.90;99.90
38380;DHT22;38377;47.418;18.882;2023-04-25T00:42:53;10.90;99.90
38380;DHT22;38377;47.418;18.882;2023-04-25T00:45:20;10.90;99.90
38380;DHT22;38377;47.418;18.882;2023-04-25T00:47:46;10.80;99.90
38380;DHT22;38377;47.418;18.882;2023-04-25T00:50:15;10.80;99.90
38380;DHT22;38377;47.418;18.882;2023-04-25T00:52:43;10.80;99.90
38380;DHT22;38377;47.418;18.882;2023-04-25T00:55:10;10.80;99.90
38380;DHT22;38377;47.418;18.882;2023-04-25T00:57:36;10.70;99.90
38380;DHT22;38377;47.418;18.882;2023-04-25T01:00:04;10.70;99.90
38380;DHT22;38377;47.418;18.882;2023-04-25T01:02:35;10.70;99.90
38380;DHT22;38377;47.418;18.882;2023-04-25T01:05:01;10.70;99.90
38380;DHT22;38377;47.418;18.882;2023-04-25T01:07:27;10.70;99.90
38380;DHT22;38377;47.418;18.882;2023-04-25T01:09:53;10.60;99.90
38380;DHT22;38377;47.418;18.882;2023-04-25T01:12:19;10.60;99.90
38380;DHT22;38377;47.418;18.882;2023-04-25T01:14:45;10.70;99.90
38380;DHT22;38377;47.418;18.882;2023-04-25T01:17:11;10.70;99.90
38380;DHT22;38377;47.418;18.882;2023-04-25T01:19:37;10.70;99.90
38380;DHT22;38377;47.418;18.882;2023-04-25T01:22:03;10.80;99.90
38380;DHT22;38377;47.418;18.882;2023-04-25T01:24:31;10.80;99.90
38380;DHT22;38377;47.418;18.882;2023-04-25T01:26:58;10.80;99.90
38380;DHT22;38377;47.418;18.882;2023-04-25T01:29:26;10.80;99.90
38380;DHT22;38377;47.418;18.882;2023-04-25T01:31:52;10.90;99.90
38380;DHT22;38377;47.418;18.882;2023-04-25T01:34:18;10.90;99.90
38380;DHT22;38377;47.418;18.882;2023-04-25T01:36:44;10.90;99.90
38380;DHT22;38377;47.418;18.882;2023-04-25T01:39:10;10.90;99.90
38380;DHT22;38377;47.418;18.882;2023-04-25T01:41:36;10.90;99.90
38380;DHT22;38377;47.418;18.882;2023-04-25T01:44:02;10.90;99.90
38380;DHT22;38377;47.418;18.882;2023-04-25T01:46:30;10.90;99.90
38380;DHT22;38377;47.418;18.882;2023-04-25T01:48:56;10.90;99.90
38380;DHT22;38377;47.418;18.882;2023-04-25T01:51:21;10.90;99.90
38380;DHT22;38377;47.418;18.882;2023-04-25T01:53:50;10.90;99.90
38380;DHT22;38377;47.418;18.882;2023-04-25T01:56:17;10.90;99.90
38380;DHT22;38377;47.418;18.882;2023-04-25T01:58:43;10.80;99.90
38380;DHT22;38377;47.418;18.882;2023-04-25T02:01:08;10.80;99.90
38380;DHT22;38377;47.418;18.882;2023-04-25T02:03:36;10.80;99.90
38380;DHT22;38377;47.418;18.882;2023-04-25T02:06:04;10.80;99.90
38380;DHT22;38377;47.418;18.882;2023-04-25T02:08:30;10.80;99.90
38380;DHT22;38377;47.418;18.882;2023-04-25T02:10:57;10.80;99.90
38380;DHT22;38377;47.418;18.882;2023-04-25T02:13:23;10.80;99.90
38380;DHT22;38377;47.418;18.882;2023-04-25T02:15:48;10.70;99.90
38380;DHT22;38377;47.418;18.882;2023-04-25T02:18:14;10.70;99.90
38380;DHT22;38377;47.418;18.882;2023-04-25T02:20:42;10.70;99.90
38380;DHT22;38377;47.418;18.882;2023-04-25T02:23:07;10.70;99.90
38380;DHT22;38377;47.418;18.882;2023-04-25T02:25:33;10.70;99.90
38380;DHT22;38377;47.418;18.882;2023-04-25T02:31:17;10.70;99.90
38380;DHT22;38377;47.418;18.882;2023-04-25T02:33:43;10.70;99.90
38380;DHT22;38377;47.418;18.882;2023-04-25T02:36:10;10.70;99.90
38380;DHT22;38377;47.418;18.882;2023-04-25T02:38:35;10.60;99.90
38380;DHT22;38377;47.418;18.882;2023-04-25T02:41:01;10.60;99.90
38380;DHT22;38377;47.418;18.882;2023-04-25T02:43:27;10.60;99.90
38380;DHT22;38377;47.418;18.882;2023-04-25T02:45:53;10.60;99.90
38380;DHT22;38377;47.418;18.882;2023-04-25T02:48:19;10.50;99.90
38380;DHT22;38377;47.418;18.882;2023-04-25T02:50:45;10.50;99.90
38380;DHT22;38377;47.418;18.882;2023-04-25T02:53:11;10.50;99.90
38380;DHT22;38377;47.418;18.882;2023-04-25T02:55:36;10.50;99.90
38380;DHT22;38377;47.418;18.882;2023-04-25T02:58:02;10.40;99.90
38380;DHT22;38377;47.418;18.882;2023-04-25T03:00:28;10.50;99.90
38380;DHT22;38377;47.418;18.882;2023-04-25T03:02:54;10.40;99.90
38380;DHT22;38377;47.418;18.882;2023-04-25T03:05:20;10.40;99.90
38380;DHT22;38377;47.418;18.882;2023-04-25T03:07:46;10.40;99.90
38380;DHT22;38377;47.418;18.882;2023-04-25T03:10:12;10.40;99.90
38380;DHT22;38377;47.418;18.882;2023-04-25T03:12:38;10.30;99.90
38380;DHT22;38377;47.418;18.882;2023-04-25T03:15:04;10.30;99.90
38380;DHT22;38377;47.418;18.882;2023-04-25T03:17:30;10.30;99.90
38380;DHT22;38377;47.418;18.882;2023-04-25T03:19:57;10.20;99.90
38380;DHT22;38377;47.418;18.882;2023-04-25T03:22:23;10.20;99.90
38380;DHT22;38377;47.418;18.882;2023-04-25T03:24:50;10.20;99.90
38380;DHT22;38377;47.418;18.882;2023-04-25T03:27:16;10.20;99.90
38380;DHT22;38377;47.418;18.882;2023-04-25T03:29:42;10.10;99.90
38380;DHT22;38377;47.418;18.882;2023-04-25T03:32:08;10.10;99.90
38380;DHT22;38377;47.418;18.882;2023-04-25T03:34:33;10.00;99.90
38380;DHT22;38377;47.418;18.882;2023-04-25T03:36:59;10.00;99.90
38380;DHT22;38377;47.418;18.882;2023-04-25T03:39:29;10.00;99.90
38380;DHT22;38377;47.418;18.882;2023-04-25T03:41:56;10.00;99.90
38380;DHT22;38377;47.418;18.882;2023-04-25T03:44:23;10.00;99.90
38380;DHT22;38377;47.418;18.882;2023-04-25T03:46:50;9.90;99.90
38380;DHT22;38377;47.418;18.882;2023-04-25T03:49:16;9.90;99.90
38380;DHT22;38377;47.418;18.882;2023-04-25T03:51:42;9.90;99.90
38380;DHT22;38377;47.418;18.882;2023-04-25T03:54:13;9.90;99.90
38380;DHT22;38377;47.418;18.882;2023-04-25T03:56:41;9.80;99.90
38380;DHT22;38377;47.418;18.882;2023-04-25T03:59:07;9.80;99.90
38380;DHT22;38377;47.418;18.882;2023-04-25T04:01:33;9.80;99.90
38380;DHT22;38377;47.418;18.882;2023-04-25T04:03:59;9.80;99.90
38380;DHT22;38377;47.418;18.882;2023-04-25T04:06:31;9.80;99.90
38380;DHT22;38377;47.418;18.882;2023-04-25T04:09:04;9.70;99.90
38380;DHT22;38377;47.418;18.882;2023-04-25T04:11:38;9.70;99.90
38380;DHT22;38377;47.418;18.882;2023-04-25T04:14:07;9.70;99.90
38380;DHT22;38377;47.418;18.882;2023-04-25T04:16:35;9.70;99.90
38380;DHT22;38377;47.418;18.882;2023-04-25T04:19:01;9.60;99.90
38380;DHT22;38377;47.418;18.882;2023-04-25T04:21:27;9.60;99.90
38380;DHT22;38377;47.418;18.882;2023-04-25T04:23:53;9.50;99.90
38380;DHT22;38377;47.418;18.882;2023-04-25T04:26:20;9.50;99.90
38380;DHT22;38377;47.418;18.882;2023-04-25T04:28:49;9.40;99.90
38380;DHT22;38377;47.418;18.882;2023-04-25T04:31:16;9.40;99.90
38380;DHT22;38377;47.418;18.882;2023-04-25T04:33:45;9.30;99.90
38380;DHT22;38377;47.418;18.882;2023-04-25T04:36:30;9.20;99.90
38380;DHT22;38377;47.418;18.882;2023-04-25T04:39:00;9.10;99.90
38380;DHT22;38377;47.418;18.882;2023-04-25T04:41:27;9.00;99.90
38380;DHT22;38377;47.418;18.882;2023-04-25T04:43:53;9.00;99.90
38380;DHT22;38377;47.418;18.882;2023-04-25T04:46:21;8.90;99.90
38380;DHT22;38377;47.418;18.882;2023-04-25T04:48:46;8.90;99.90
38380;DHT22;38377;47.418;18.882;2023-04-25T04:51:12;8.90;99.90
38380;DHT22;38377;47.418;18.882;2023-04-25T04:53:38;8.80;99.90
38380;DHT22;38377;47.418;18.882;2023-04-25T04:56:04;8.80;99.90
38380;DHT22;38377;47.418;18.882;2023-04-25T04:58:30;8.80;99.90
38380;DHT22;38377;47.418;18.882;2023-04-25T05:00:56;8.70;99.90
38380;DHT22;38377;47.418;18.882;2023-04-25T05:03:22;8.70;99.90
38380;DHT22;38377;47.418;18.882;2023-04-25T05:05:47;8.70;99.90
38380;DHT22;38377;47.418;18.882;2023-04-25T05:08:13;8.60;99.90
38380;DHT22;38377;47.418;18.882;2023-04-25T05:10:39;8.60;99.90
38380;DHT22;38377;47.418;18.882;2023-04-25T05:13:05;8.60;99.90
38380;DHT22;38377;47.418;18.882;2023-04-25T05:15:30;8.50;99.90
38380;DHT22;38377;47.418;18.882;2023-04-25T05:17:56;8.50;99.90
38380;DHT22;38377;47.418;18.882;2023-04-25T05:20:22;8.50;99.90
38380;DHT22;38377;47.418;18.882;2023-04-25T05:22:47;8.50;99.90
38380;DHT22;38377;47.418;18.882;2023-04-25T05:25:16;8.50;99.90
38380;DHT22;38377;47.418;18.882;2023-04-25T05:27:41;8.50;99.90
38380;DHT22;38377;47.418;18.882;2023-04-25T05:30:07;8.50;99.90
38380;DHT22;38377;47.418;18.882;2023-04-25T05:32:34;8.50;99.90
38380;DHT22;38377;47.418;18.882;2023-04-25T05:35:00;8.50;99.90
38380;DHT22;38377;47.418;18.882;2023-04-25T05:37:25;8.50;99.90
38380;DHT22;38377;47.418;18.882;2023-04-25T05:39:51;8.60;99.90
38380;DHT22;38377;47.418;18.882;2023-04-25T05:42:17;8.60;99.90
38380;DHT22;38377;47.418;18.882;2023-04-25T05:44:43;8.70;99.90
38380;DHT22;38377;47.418;18.882;2023-04-25T05:47:08;8.60;99.90
38380;DHT22;38377;47.418;18.882;2023-04-25T05:49:34;8.70;99.90
38380;DHT22;38377;47.418;18.882;2023-04-25T05:52:00;8.70;99.90
38380;DHT22;38377;47.418;18.882;2023-04-25T05:54:26;8.80;99.90
38380;DHT22;38377;47.418;18.882;2023-04-25T05:56:51;8.80;99.90
38380;DHT22;38377;47.418;18.882;2023-04-25T05:59:17;8.90;99.90
38380;DHT22;38377;47.418;18.882;2023-04-25T06:01:43;8.90;99.90
38380;DHT22;38377;47.418;18.882;2023-04-25T06:04:08;9.00;99.90
38380;DHT22;38377;47.418;18.882;2023-04-25T06:06:34;9.00;99.90
38380;DHT22;38377;47.418;18.882;2023-04-25T06:08:59;9.10;99.90
38380;DHT22;38377;47.418;18.882;2023-04-25T06:11:25;9.10;99.90
38380;DHT22;38377;47.418;18.882;2023-04-25T06:13:51;9.10;99.90
38380;DHT22;38377;47.418;18.882;2023-04-25T06:16:17;9.20;99.90
38380;DHT22;38377;47.418;18.882;2023-04-25T06:18:42;9.20;99.90
38380;DHT22;38377;47.418;18.882;2023-04-25T06:21:08;9.20;99.90
38380;DHT22;38377;47.418;18.882;2023-04-25T06:23:34;9.30;99.90
38380;DHT22;38377;47.418;18.882;2023-04-25T06:25:59;9.40;99.90
38380;DHT22;38377;47.418;18.882;2023-04-25T06:28:25;9.40;99.90
38380;DHT22;38377;47.418;18.882;2023-04-25T06:30:51;9.50;99.90
38380;DHT22;38377;47.418;18.882;2023-04-25T06:33:16;9.60;99.90
38380;DHT22;38377;47.418;18.882;2023-04-25T06:35:44;9.60;99.90
38380;DHT22;38377;47.418;18.882;2023-04-25T06:38:10;9.70;99.90
38380;DHT22;38377;47.418;18.882;2023-04-25T06:40:36;9.70;99.90
38380;DHT22;38377;47.418;18.882;2023-04-25T06:43:01;9.80;99.90
38380;DHT22;38377;47.418;18.882;2023-04-25T06:45:27;9.90;99.90
38380;DHT22;38377;47.418;18.882;2023-04-25T06:47:53;9.90;99.90
38380;DHT22;38377;47.418;18.882;2023-04-25T06:50:18;9.90;99.90
38380;DHT22;38377;47.418;18.882;2023-04-25T06:52:44;10.00;99.90
38380;DHT22;38377;47.418;18.882;2023-04-25T06:55:12;10.10;99.90
38380;DHT22;38377;47.418;18.882;2023-04-25T06:57:38;10.20;99.90
38380;DHT22;38377;47.418;18.882;2023-04-25T07:00:04;10.30;99.90
38380;DHT22;38377;47.418;18.882;2023-04-25T07:02:36;10.50;99.90
38380;DHT22;38377;47.418;18.882;2023-04-25T07:05:03;10.70;99.90
38380;DHT22;38377;47.418;18.882;2023-04-25T07:07:30;10.80;99.90
38380;DHT22;38377;47.418;18.882;2023-04-25T07:09:56;10.90;99.90
38380;DHT22;38377;47.418;18.882;2023-04-25T07:12:22;11.10;99.90
38380;DHT22;38377;47.418;18.882;2023-04-25T07:14:47;11.30;99.90
38380;DHT22;38377;47.418;18.882;2023-04-25T07:17:13;11.30;99.90
38380;DHT22;38377;47.418;18.882;2023-04-25T07:19:39;11.40;99.90
38380;DHT22;38377;47.418;18.882;2023-04-25T07:22:06;11.50;99.90
38380;DHT22;38377;47.418;18.882;2023-04-25T07:24:32;11.60;99.90
38380;DHT22;38377;47.418;18.882;2023-04-25T07:26:57;11.60;99.90
38380;DHT22;38377;47.418;18.882;2023-04-25T07:29:23;11.80;99.90
38380;DHT22;38377;47.418;18.882;2023-04-25T07:31:49;12.00;99.90
38380;DHT22;38377;47.418;18.882;2023-04-25T07:34:15;12.10;99.90
38380;DHT22;38377;47.418;18.882;2023-04-25T07:36:41;12.20;99.90
38380;DHT22;38377;47.418;18.882;2023-04-25T07:39:07;12.10;99.90
38380;DHT22;38377;47.418;18.882;2023-04-25T07:41:36;12.10;99.90
38380;DHT22;38377;47.418;18.882;2023-04-25T07:44:01;12.00;99.90
38380;DHT22;38377;47.418;18.882;2023-04-25T07:46:27;12.00;99.90
38380;DHT22;38377;47.418;18.882;2023-04-25T07:48:53;11.80;99.90
38380;DHT22;38377;47.418;18.882;2023-04-25T07:51:18;11.80;99.90
38380;DHT22;38377;47.418;18.882;2023-04-25T07:53:45;11.90;99.90
38380;DHT22;38377;47.418;18.882;2023-04-25T07:56:11;12.00;99.90
38380;DHT22;38377;47.418;18.882;2023-04-25T07:58:37;12.10;99.90
38380;DHT22;38377;47.418;18.882;2023-04-25T08:01:03;12.20;99.90
38380;DHT22;38377;47.418;18.882;2023-04-25T08:03:29;12.20;99.90
38380;DHT22;38377;47.418;18.882;2023-04-25T08:05:54;12.20;99.90
38380;DHT22;38377;47.418;18.882;2023-04-25T08:08:21;12.20;99.90
38380;DHT22;38377;47.418;18.882;2023-04-25T08:10:46;12.20;99.90
38380;DHT22;38377;47.418;18.882;2023-04-25T08:13:13;12.20;99.90
38380;DHT22;38377;47.418;18.882;2023-04-25T08:15:39;12.10;99.90
38380;DHT22;38377;47.418;18.882;2023-04-25T08:18:05;12.00;99.90
38380;DHT22;38377;47.418;18.882;2023-04-25T08:20:31;11.90;99.90
38380;DHT22;38377;47.418;18.882;2023-04-25T08:22:57;11.90;99.90
38380;DHT22;38377;47.418;18.882;2023-04-25T08:25:25;11.90;99.90
38380;DHT22;38377;47.418;18.882;2023-04-25T08:27:51;11.90;99.90
38380;DHT22;38377;47.418;18.882;2023-04-25T08:30:16;12.10;99.90
38380;DHT22;38377;47.418;18.882;2023-04-25T08:32:42;12.10;99.90
38380;DHT22;38377;47.418;18.882;2023-04-25T08:35:08;12.20;99.90
38380;DHT22;38377;47.418;18.882;2023-04-25T08:37:34;12.30;99.90
38380;DHT22;38377;47.418;18.882;2023-04-25T08:40:00;12.30;99.90
38380;DHT22;38377;47.418;18.882;2023-04-25T08:42:27;12.30;99.90
38380;DHT22;38377;47.418;18.882;2023-04-25T08:44:54;12.10;99.90
38380;DHT22;38377;47.418;18.882;2023-04-25T08:47:22;12.00;99.90
38380;DHT22;38377;47.418;18.882;2023-04-25T08:49:49;11.80;99.90
38380;DHT22;38377;47.418;18.882;2023-04-25T08:52:22;11.80;99.90
38380;DHT22;38377;47.418;18.882;2023-04-25T08:54:49;11.80;99.90
38380;DHT22;38377;47.418;18.882;2023-04-25T08:57:15;11.90;99.90
38380;DHT22;38377;47.418;18.882;2023-04-25T08:59:41;12.00;99.90
38380;DHT22;38377;47.418;18.882;2023-04-25T09:02:11;11.90;99.90
38380;DHT22;38377;47.418;18.882;2023-04-25T09:04:43;11.80;99.90
38380;DHT22;38377;47.418;18.882;2023-04-25T09:07:09;11.80;99.90
38380;DHT22;38377;47.418;18.882;2023-04-25T09:09:36;11.80;99.90
38380;DHT22;38377;47.418;18.882;2023-04-25T09:12:05;11.80;99.90
38380;DHT22;38377;47.418;18.882;2023-04-25T09:14:31;11.80;99.90
38380;DHT22;38377;47.418;18.882;2023-04-25T09:16:57;12.00;99.90
38380;DHT22;38377;47.418;18.882;2023-04-25T09:19:28;12.10;99.90
38380;DHT22;38377;47.418;18.882;2023-04-25T09:21:55;12.30;99.90
38380;DHT22;38377;47.418;18.882;2023-04-25T09:24:43;12.40;99.90
38380;DHT22;38377;47.418;18.882;2023-04-25T09:27:12;12.40;99.90
38380;DHT22;38377;47.418;18.882;2023-04-25T09:29:39;12.50;99.90
38380;DHT22;38377;47.418;18.882;2023-04-25T09:32:23;12.60;99.90
38380;DHT22;38377;47.418;18.882;2023-04-25T09:34:54;12.70;99.90
38380;DHT22;38377;47.418;18.882;2023-04-25T09:37:20;12.60;99.90
38380;DHT22;38377;47.418;18.882;2023-04-25T09:39:48;12.60;99.90
38380;DHT22;38377;47.418;18.882;2023-04-25T09:42:14;12.70;99.90
38380;DHT22;38377;47.418;18.882;2023-04-25T09:44:43;12.80;99.90
38380;DHT22;38377;47.418;18.882;2023-04-25T09:47:11;12.80;99.90
38380;DHT22;38377;47.418;18.882;2023-04-25T09:49:40;12.90;99.90
38380;DHT22;38377;47.418;18.882;2023-04-25T09:52:07;12.90;99.90
38380;DHT22;38377;47.418;18.882;2023-04-25T09:54:33;12.90;99.90
38380;DHT22;38377;47.418;18.882;2023-04-25T09:57:09;12.80;99.90
38380;DHT22;38377;47.418;18.882;2023-04-25T09:59:39;13.00;99.90
38380;DHT22;38377;47.418;18.882;2023-04-25T10:02:07;13.00;99.90
38380;DHT22;38377;47.418;18.882;2023-04-25T10:04:34;12.90;99.90
38380;DHT22;38377;47.418;18.882;2023-04-25T10:07:02;12.70;99.90
38380;DHT22;38377;47.418;18.882;2023-04-25T10:09:29;12.80;99.90
38380;DHT22;38377;47.418;18.882;2023-04-25T10:11:59;12.80;99.90
38380;DHT22;38377;47.418;18.882;2023-04-25T10:14:26;12.80;99.90
38380;DHT22;38377;47.418;18.882;2023-04-25T10:16:52;12.90;99.90
38380;DHT22;38377;47.418;18.882;2023-04-25T10:19:20;12.90;99.90
38380;DHT22;38377;47.418;18.882;2023-04-25T10:21:51;13.10;99.90
38380;DHT22;38377;47.418;18.882;2023-04-25T10:24:18;13.30;99.90
38380;DHT22;38377;47.418;18.882;2023-04-25T10:26:44;13.40;99.70
38380;DHT22;38377;47.418;18.882;2023-04-25T10:29:11;13.50;99.90
38380;DHT22;38377;47.418;18.882;2023-04-25T10:31:45;13.60;98.30
38380;DHT22;38377;47.418;18.882;2023-04-25T10:34:12;13.80;98.00
38380;DHT22;38377;47.418;18.882;2023-04-25T10:36:37;13.80;97.50
38380;DHT22;38377;47.418;18.882;2023-04-25T10:39:07;14.00;98.10
38380;DHT22;38377;47.418;18.882;2023-04-25T10:41:48;14.30;97.70
38380;DHT22;38377;47.418;18.882;2023-04-25T10:44:17;14.30;97.00
38380;DHT22;38377;47.418;18.882;2023-04-25T10:46:44;14.50;97.30
38380;DHT22;38377;47.418;18.882;2023-04-25T10:49:11;14.40;96.00
38380;DHT22;38377;47.418;18.882;2023-04-25T10:57:31;14.30;96.00
38380;DHT22;38377;47.418;18.882;2023-04-25T11:00:10;14.80;93.80
38380;DHT22;38377;47.418;18.882;2023-04-25T11:02:37;15.10;92.70
38380;DHT22;38377;47.418;18.882;2023-04-25T11:05:03;15.30;91.50
38380;DHT22;38377;47.418;18.882;2023-04-25T11:07:43;15.10;92.50
38380;DHT22;38377;47.418;18.882;2023-04-25T11:10:10;15.00;91.20
38380;DHT22;38377;47.418;18.882;2023-04-25T11:12:36;14.70;90.10
38380;DHT22;38377;47.418;18.882;2023-04-25T11:15:06;14.50;91.70
38380;DHT22;38377;47.418;18.882;2023-04-25T11:17:33;14.30;90.40
38380;DHT22;38377;47.418;18.882;2023-04-25T11:19:59;14.00;90.00
38380;DHT22;38377;47.418;18.882;2023-04-25T11:22:26;13.80;88.30
38380;DHT22;38377;47.418;18.882;2023-04-25T11:24:52;13.80;90.00
38380;DHT22;38377;47.418;18.882;2023-04-25T11:27:18;13.80;90.40
38380;DHT22;38377;47.418;18.882;2023-04-25T11:29:44;14.00;91.10
38380;DHT22;38377;47.418;18.882;2023-04-25T11:32:10;14.10;89.60
38380;DHT22;38377;47.418;18.882;2023-04-25T11:34:36;14.20;90.20
38380;DHT22;38377;47.418;18.882;2023-04-25T11:37:02;14.30;90.20
38380;DHT22;38377;47.418;18.882;2023-04-25T11:39:28;14.40;90.20
38380;DHT22;38377;47.418;18.882;2023-04-25T11:41:55;14.80;90.40
38380;DHT22;38377;47.418;18.882;2023-04-25T11:44:21;15.10;90.70
38380;DHT22;38377;47.418;18.882;2023-04-25T11:46:47;15.40;88.70
38380;DHT22;38377;47.418;18.882;2023-04-25T11:49:14;15.70;89.90
38380;DHT22;38377;47.418;18.882;2023-04-25T11:51:45;16.10;89.80
38380;DHT22;38377;47.418;18.882;2023-04-25T11:54:11;16.40;86.00
38380;DHT22;38377;47.418;18.882;2023-04-25T11:56:41;16.10;87.20
38380;DHT22;38377;47.418;18.882;2023-04-25T11:59:07;15.70;87.10
38380;DHT22;38377;47.418;18.882;2023-04-25T12:01:34;15.20;87.60
38380;DHT22;38377;47.418;18.882;2023-04-25T12:04:22;15.30;85.80
38380;DHT22;38377;47.418;18.882;2023-04-25T12:06:55;15.60;83.30
38380;DHT22;38377;47.418;18.882;2023-04-25T12:09:31;15.50;82.20
38380;DHT22;38377;47.418;18.882;2023-04-25T12:11:59;15.10;82.50
38380;DHT22;38377;47.418;18.882;2023-04-25T12:14:29;15.30;83.10
38380;DHT22;38377;47.418;18.882;2023-04-25T12:16:57;15.40;82.70
38380;DHT22;38377;47.418;18.882;2023-04-25T12:19:24;15.40;80.50
38380;DHT22;38377;47.418;18.882;2023-04-25T12:21:50;15.50;79.60
38380;DHT22;38377;47.418;18.882;2023-04-25T12:24:21;15.30;80.40
38380;DHT22;38377;47.418;18.882;2023-04-25T12:26:58;15.10;81.60
38380;DHT22;38377;47.418;18.882;2023-04-25T12:29:26;14.80;80.00
38380;DHT22;38377;47.418;18.882;2023-04-25T12:31:54;14.60;82.80
38380;DHT22;38377;47.418;18.882;2023-04-25T12:34:20;15.00;84.80
38380;DHT22;38377;47.418;18.882;2023-04-25T12:36:46;14.80;83.50
38380;DHT22;38377;47.418;18.882;2023-04-25T12:39:16;14.60;83.70
38380;DHT22;38377;47.418;18.882;2023-04-25T12:41:43;14.30;84.10
38380;DHT22;38377;47.418;18.882;2023-04-25T12:44:09;14.10;85.90
38380;DHT22;38377;47.418;18.882;2023-04-25T12:46:35;13.90;83.30
38380;DHT22;38377;47.418;18.882;2023-04-25T12:49:01;14.10;82.80
38380;DHT22;38377;47.418;18.882;2023-04-25T12:51:29;14.60;81.20
38380;DHT22;38377;47.418;18.882;2023-04-25T12:53:55;15.00;80.90
38380;DHT22;38377;47.418;18.882;2023-04-25T12:56:20;15.10;79.70
38380;DHT22;38377;47.418;18.882;2023-04-25T12:58:46;15.00;77.20
38380;DHT22;38377;47.418;18.882;2023-04-25T13:01:14;15.10;77.60
38380;DHT22;38377;47.418;18.882;2023-04-25T13:03:40;15.20;79.20
38380;DHT22;38377;47.418;18.882;2023-04-25T13:06:06;15.20;78.80
38380;DHT22;38377;47.418;18.882;2023-04-25T13:08:32;15.30;79.60
38380;DHT22;38377;47.418;18.882;2023-04-25T13:10:58;15.70;79.50
38380;DHT22;38377;47.418;18.882;2023-04-25T13:13:24;16.00;77.20
38380;DHT22;38377;47.418;18.882;2023-04-25T13:15:50;16.20;76.90
38380;DHT22;38377;47.418;18.882;2023-04-25T13:18:15;16.30;78.00
38380;DHT22;38377;47.418;18.882;2023-04-25T13:20:41;16.10;76.30
38380;DHT22;38377;47.418;18.882;2023-04-25T13:23:07;15.60;72.60
38380;DHT22;38377;47.418;18.882;2023-04-25T13:25:32;15.70;73.10
38380;DHT22;38377;47.418;18.882;2023-04-25T13:27:58;16.00;76.10
38380;DHT22;38377;47.418;18.882;2023-04-25T13:30:24;16.10;73.80
38380;DHT22;38377;47.418;18.882;2023-04-25T13:32:49;16.00;72.00
38380;DHT22;38377;47.418;18.882;2023-04-25T13:35:16;15.90;71.60
38380;DHT22;38377;47.418;18.882;2023-04-25T13:37:42;16.00;73.80
38380;DHT22;38377;47.418;18.882;2023-04-25T13:40:09;16.10;73.50
38380;DHT22;38377;47.418;18.882;2023-04-25T13:42:37;16.10;72.70
38380;DHT22;38377;47.418;18.882;2023-04-25T13:45:03;15.80;73.20
38380;DHT22;38377;47.418;18.882;2023-04-25T13:47:29;15.50;73.60
38380;DHT22;38377;47.418;18.882;2023-04-25T13:49:55;15.60;72.90
38380;DHT22;38377;47.418;18.882;2023-04-25T13:52:21;15.80;72.80
38380;DHT22;38377;47.418;18.882;2023-04-25T13:54:47;15.90;73.40
38380;DHT22;38377;47.418;18.882;2023-04-25T13:57:13;15.80;72.50
38380;DHT22;38377;47.418;18.882;2023-04-25T13:59:39;15.90;74.20
38380;DHT22;38377;47.418;18.882;2023-04-25T14:02:06;15.90;73.20
38380;DHT22;38377;47.418;18.882;2023-04-25T14:04:32;16.00;73.30
38380;DHT22;38377;47.418;18.882;2023-04-25T14:06:58;16.30;71.90
38380;DHT22;38377;47.418;18.882;2023-04-25T14:09:24;16.20;73.90
38380;DHT22;38377;47.418;18.882;2023-04-25T14:11:54;16.30;73.40
38380;DHT22;38377;47.418;18.882;2023-04-25T14:14:21;16.30;73.90
38380;DHT22;38377;47.418;18.882;2023-04-25T14:16:48;16.00;72.40
38380;DHT22;38377;47.418;18.882;2023-04-25T14:19:14;15.40;74.00
38380;DHT22;38377;47.418;18.882;2023-04-25T14:21:40;15.10;74.40
38380;DHT22;38377;47.418;18.882;2023-04-25T14:24:06;15.20;76.50
38380;DHT22;38377;47.418;18.882;2023-04-25T14:26:36;15.10;76.50
38380;DHT22;38377;47.418;18.882;2023-04-25T14:29:03;14.90;77.40
38380;DHT22;38377;47.418;18.882;2023-04-25T14:31:29;14.70;77.50
38380;DHT22;38377;47.418;18.882;2023-04-25T14:33:54;14.70;78.90
38380;DHT22;38377;47.418;18.882;2023-04-25T14:36:20;14.70;78.30
38380;DHT22;38377;47.418;18.882;2023-04-25T14:38:46;14.80;77.30
38380;DHT22;38377;47.418;18.882;2023-04-25T14:41:12;15.10;77.40
38380;DHT22;38377;47.418;18.882;2023-04-25T14:43:38;15.40;77.20
38380;DHT22;38377;47.418;18.882;2023-04-25T14:46:06;15.60;75.20
38380;DHT22;38377;47.418;18.882;2023-04-25T14:48:32;15.80;75.30
38380;DHT22;38377;47.418;18.882;2023-04-25T14:50:59;15.80;76.50
38380;DHT22;38377;47.418;18.882;2023-04-25T14:53:25;16.00;74.20
38380;DHT22;38377;47.418;18.882;2023-04-25T14:55:52;15.80;74.70
38380;DHT22;38377;47.418;18.882;2023-04-25T14:58:18;15.40;73.60
38380;DHT22;38377;47.418;18.882;2023-04-25T15:00:43;15.10;74.70
38380;DHT22;38377;47.418;18.882;2023-04-25T15:03:10;14.90;75.80
38380;DHT22;38377;47.418;18.882;2023-04-25T15:05:38;14.80;76.50
38380;DHT22;38377;47.418;18.882;2023-04-25T15:08:04;14.70;77.80
38380;DHT22;38377;47.418;18.882;2023-04-25T15:10:30;14.70;77.30
38380;DHT22;38377;47.418;18.882;2023-04-25T15:12:56;14.70;77.10
38380;DHT22;38377;47.418;18.882;2023-04-25T15:15:22;14.40;77.30
38380;DHT22;38377;47.418;18.882;2023-04-25T15:17:49;14.20;77.50
38380;DHT22;38377;47.418;18.882;2023-04-25T15:20:16;14.10;78.70
38380;DHT22;38377;47.418;18.882;2023-04-25T15:22:43;14.00;78.80
38380;DHT22;38377;47.418;18.882;2023-04-25T15:25:11;14.00;79.90
38380;DHT22;38377;47.418;18.882;2023-04-25T15:27:39;14.00;80.00